Terminal Aerodrome Forecast
Issued by NWS Wichita, KS

Home | Current Version | Previous Version | Graphics & Text | Print | Product List | Glossary Off
Versions: 1 2 3 4 5 6 7 8 9 10 11 12 13 14 15

254
FTUS43 KICT 231726
TAFICT
TAF
KICT 231726Z 2318/2418 17010KT P6SM SKC
     FM240800 15014KT P6SM SCT250 WS020/19040KT
     FM241400 17015KT P6SM SCT150
     FM241600 20017G25KT P6SM SCT150=

USA.gov is the U.S. government's official web portal to all federal, state and local government web resources and services.